createdAt,value
2022-08-22T00:00:13.401Z,31.80
2022-08-22T00:02:52.977Z,36.10
2022-08-22T00:02:55.205Z,32.30
2022-08-22T00:03:00.571Z,36.80
2022-08-22T00:03:02.618Z,31.50
2022-08-22T00:03:17.333Z,31.70
2022-08-22T00:06:05.668Z,31.70
2022-08-22T00:08:44.123Z,31.70
2022-08-22T00:11:23.771Z,31.60
2022-08-22T00:14:02.280Z,31.40
2022-08-22T00:16:41.281Z,31.30
2022-08-22T00:19:20.366Z,31.20
2022-08-22T00:21:58.464Z,31.10
2022-08-22T00:24:36.769Z,30.90
2022-08-22T00:27:17.519Z,30.80
2022-08-22T00:29:54.568Z,30.80
2022-08-22T00:32:32.275Z,30.80
2022-08-22T00:35:07.046Z,30.80
2022-08-22T00:37:44.773Z,30.90
2022-08-22T00:40:33.852Z,31.00
2022-08-22T00:43:31.340Z,31.00
2022-08-22T00:46:26.979Z,31.00
2022-08-22T00:49:32.650Z,30.80
2022-08-22T00:52:38.037Z,30.70
2022-08-22T00:55:35.199Z,30.70
2022-08-22T00:58:38.996Z,30.50
2022-08-22T01:01:14.329Z,30.40
2022-08-22T01:04:08.864Z,30.40
2022-08-22T01:06:50.116Z,30.40
2022-08-22T01:09:33.912Z,30.40
2022-08-22T01:12:21.711Z,30.40
2022-08-22T01:14:56.409Z,30.40
2022-08-22T01:18:00.238Z,30.50
2022-08-22T01:21:14.852Z,30.60
2022-08-22T01:24:24.907Z,30.70
2022-08-22T01:27:42.472Z,30.70
2022-08-22T01:30:33.456Z,30.70
2022-08-22T01:34:02.408Z,30.70
2022-08-22T01:37:06.809Z,30.60
2022-08-22T01:39:55.197Z,30.40
2022-08-22T01:42:55.185Z,30.20
2022-08-22T01:45:50.742Z,30.00
2022-08-22T01:48:26.900Z,29.60
2022-08-22T01:51:03.039Z,29.30
2022-08-22T01:53:47.236Z,29.10
2022-08-22T01:56:22.378Z,29.10
2022-08-22T01:59:01.752Z,28.90
2022-08-22T02:01:46.887Z,28.90
2022-08-22T02:04:23.374Z,29.00
2022-08-22T02:07:05.514Z,29.10
2022-08-22T02:09:46.921Z,29.10
2022-08-22T02:12:32.882Z,29.10
2022-08-22T02:15:15.899Z,29.00
2022-08-22T02:18:07.225Z,28.80
2022-08-22T02:20:42.455Z,28.70
2022-08-22T02:23:27.205Z,28.50
2022-08-22T02:26:08.203Z,28.40
2022-08-22T02:28:56.686Z,28.30
2022-08-22T02:31:40.984Z,28.30
2022-08-22T02:34:41.000Z,28.10
2022-08-22T02:37:17.836Z,27.90
2022-08-22T02:39:55.323Z,27.90
2022-08-22T02:42:35.616Z,27.80
2022-08-22T02:45:24.100Z,27.80
2022-08-22T02:48:01.736Z,27.60
2022-08-22T02:50:41.319Z,27.40
2022-08-22T02:53:26.978Z,27.30
2022-08-22T02:56:04.333Z,27.20
2022-08-22T02:58:46.591Z,27.10
2022-08-22T03:01:41.766Z,27.10
2022-08-22T03:04:29.850Z,27.00
2022-08-22T03:07:10.307Z,26.80
2022-08-22T03:09:46.027Z,26.80
2022-08-22T03:12:27.497Z,26.70
2022-08-22T03:15:04.890Z,26.70
2022-08-22T03:17:41.630Z,26.60
2022-08-22T03:20:16.489Z,26.60
2022-08-22T03:22:54.422Z,26.60
2022-08-22T03:25:33.947Z,26.60
2022-08-22T03:28:12.914Z,26.50
2022-08-22T03:30:47.823Z,26.50
2022-08-22T03:33:22.339Z,26.40
2022-08-22T03:36:07.491Z,26.30
2022-08-22T03:38:55.133Z,26.20
2022-08-22T03:41:53.067Z,26.00
2022-08-22T03:45:00.144Z,25.90
2022-08-22T03:48:10.488Z,25.70
2022-08-22T03:51:06.288Z,25.60
2022-08-22T03:54:09.183Z,25.40
2022-08-22T03:57:12.975Z,25.30
2022-08-22T04:00:02.631Z,25.30
2022-08-22T04:03:04.668Z,25.30
2022-08-22T04:06:00.973Z,25.20
2022-08-22T04:09:04.392Z,25.10
2022-08-22T04:12:04.731Z,25.10
2022-08-22T04:15:00.440Z,25.10
2022-08-22T04:17:54.966Z,25.00
2022-08-22T04:21:00.279Z,24.90
2022-08-22T04:24:00.404Z,24.80
2022-08-22T04:26:43.391Z,24.60
2022-08-22T04:29:22.059Z,24.50
2022-08-22T04:32:02.465Z,24.40
2022-08-22T04:34:40.697Z,24.30
2022-08-22T04:37:17.868Z,24.30
2022-08-22T04:39:54.822Z,24.20
2022-08-22T04:42:34.276Z,24.20
2022-08-22T04:45:11.435Z,24.20
2022-08-22T04:47:54.011Z,24.20
2022-08-22T04:50:28.780Z,24.20
2022-08-22T04:53:33.264Z,24.10
2022-08-22T04:56:13.859Z,24.10
2022-08-22T04:58:49.225Z,24.00
2022-08-22T05:01:21.645Z,23.90
2022-08-22T05:03:59.951Z,23.80
2022-08-22T05:06:32.732Z,23.80
2022-08-22T05:09:10.864Z,23.70
2022-08-22T05:11:45.616Z,23.70
2022-08-22T05:14:22.383Z,23.60
2022-08-22T05:16:56.966Z,23.50
2022-08-22T05:19:35.588Z,23.50
2022-08-22T05:22:09.365Z,23.50
2022-08-22T05:24:44.943Z,23.40
2022-08-22T05:27:18.973Z,23.40
2022-08-22T05:29:52.544Z,23.30
2022-08-22T05:32:28.191Z,23.20
2022-08-22T05:35:04.065Z,23.20
2022-08-22T05:37:40.532Z,23.10
2022-08-22T05:40:20.307Z,23.10
2022-08-22T05:42:51.654Z,23.10
2022-08-22T05:45:23.130Z,23.00
2022-08-22T05:47:58.203Z,22.90
2022-08-22T05:50:38.399Z,22.80
2022-08-22T05:53:13.573Z,22.70
2022-08-22T05:55:55.749Z,22.70
2022-08-22T05:58:47.816Z,22.60
2022-08-22T06:01:32.113Z,22.60
2022-08-22T06:04:10.490Z,22.60
2022-08-22T06:06:47.131Z,22.50
2022-08-22T06:09:25.064Z,22.50
2022-08-22T06:12:21.669Z,22.50
2022-08-22T06:15:02.600Z,22.40
2022-08-22T06:17:47.928Z,22.40
2022-08-22T06:20:22.185Z,22.40
2022-08-22T06:22:58.604Z,22.30
2022-08-22T06:25:33.145Z,22.30
2022-08-22T06:28:08.744Z,22.30
2022-08-22T06:30:41.163Z,22.20
2022-08-22T06:33:15.523Z,22.10
2022-08-22T06:36:08.278Z,22.00
2022-08-22T06:38:59.575Z,22.10
2022-08-22T06:41:33.531Z,22.10
2022-08-22T06:44:06.756Z,22.00
2022-08-22T06:46:40.454Z,22.00
2022-08-22T06:49:13.294Z,21.90
2022-08-22T06:51:45.000Z,21.90
2022-08-22T06:54:21.335Z,21.80
2022-08-22T06:56:53.930Z,21.70
2022-08-22T06:59:30.105Z,21.60
2022-08-22T07:02:06.497Z,21.70
2022-08-22T07:04:37.416Z,21.70
2022-08-22T07:07:09.220Z,21.60
2022-08-22T07:09:44.131Z,21.60
2022-08-22T07:12:20.219Z,21.50
2022-08-22T07:14:53.624Z,21.50
2022-08-22T07:17:27.124Z,21.50
2022-08-22T07:20:02.537Z,21.50
2022-08-22T07:22:37.376Z,21.40
2022-08-22T07:25:13.746Z,21.30
2022-08-22T07:28:00.960Z,21.30
2022-08-22T07:30:47.624Z,21.40
2022-08-22T07:33:38.004Z,21.20
2022-08-22T07:36:29.591Z,21.20
2022-08-22T07:39:28.283Z,21.20
2022-08-22T07:42:09.381Z,21.20
2022-08-22T07:44:50.868Z,21.20
2022-08-22T07:47:26.279Z,21.10
2022-08-22T07:50:00.143Z,21.00
2022-08-22T07:52:37.461Z,21.00
2022-08-22T07:55:18.072Z,21.00
2022-08-22T07:57:55.813Z,20.90
2022-08-22T08:00:29.786Z,20.90
2022-08-22T08:03:05.214Z,20.90
2022-08-22T08:05:38.362Z,20.90
2022-08-22T08:08:15.540Z,20.90
2022-08-22T08:10:46.932Z,20.80
2022-08-22T08:13:24.428Z,20.90
2022-08-22T08:15:55.812Z,20.90
2022-08-22T08:18:29.300Z,20.90
2022-08-22T08:21:07.620Z,20.80
2022-08-22T08:23:43.951Z,20.80
2022-08-22T08:26:18.239Z,20.70
2022-08-22T08:28:53.413Z,20.70
2022-08-22T08:31:30.367Z,20.70
2022-08-22T08:34:06.558Z,20.60
2022-08-22T08:36:48.306Z,20.60
2022-08-22T08:39:35.069Z,20.60
2022-08-22T08:42:55.312Z,20.60
2022-08-22T08:45:53.043Z,20.50
2022-08-22T08:48:52.620Z,20.50
2022-08-22T08:51:59.388Z,20.50
2022-08-22T08:54:52.434Z,20.40
2022-08-22T08:57:40.403Z,20.30
2022-08-22T09:00:14.059Z,20.30
2022-08-22T09:03:09.152Z,20.30
2022-08-22T09:06:09.089Z,20.40
2022-08-22T09:09:00.532Z,20.20
2022-08-22T09:11:58.349Z,20.20
2022-08-22T09:14:58.319Z,20.20
2022-08-22T09:18:19.592Z,20.10
2022-08-22T09:21:30.522Z,20.10
2022-08-22T09:24:39.480Z,20.10
2022-08-22T09:27:17.612Z,20.00
2022-08-22T09:29:55.333Z,20.00
2022-08-22T09:32:48.674Z,19.90
2022-08-22T09:35:29.007Z,19.90
2022-08-22T09:38:24.772Z,19.80
2022-08-22T09:41:03.198Z,19.70
2022-08-22T09:43:44.174Z,19.70
2022-08-22T09:46:21.635Z,19.70
2022-08-22T09:49:06.519Z,19.70
2022-08-22T09:51:47.682Z,19.70
2022-08-22T09:54:38.291Z,19.70
2022-08-22T09:57:29.380Z,19.60
2022-08-22T10:00:17.444Z,19.60
2022-08-22T10:03:12.527Z,19.60
2022-08-22T10:05:48.809Z,19.50
2022-08-22T10:08:49.304Z,19.40
2022-08-22T10:11:30.323Z,19.40
2022-08-22T10:14:07.278Z,19.40
2022-08-22T10:16:55.989Z,19.30
2022-08-22T10:19:32.848Z,19.30
2022-08-22T10:22:32.796Z,19.30
2022-08-22T10:25:25.000Z,19.20
2022-08-22T10:28:10.442Z,19.20
2022-08-22T10:30:52.730Z,19.10
2022-08-22T10:33:30.757Z,19.10
2022-08-22T10:36:12.066Z,19.10
2022-08-22T10:38:47.994Z,19.10
2022-08-22T10:41:30.125Z,19.00
2022-08-22T10:44:07.647Z,19.10
2022-08-22T10:46:49.879Z,19.00
2022-08-22T10:49:28.962Z,18.90
2022-08-22T10:52:15.270Z,18.90
2022-08-22T10:54:53.804Z,18.80
2022-08-22T10:57:40.840Z,18.80
2022-08-22T11:00:33.559Z,18.70
2022-08-22T11:03:21.341Z,18.70
2022-08-22T11:05:55.856Z,18.70
2022-08-22T11:09:00.303Z,18.70
2022-08-22T11:11:49.025Z,18.70
2022-08-22T11:15:00.696Z,18.70
2022-08-22T11:18:13.036Z,18.60
2022-08-22T11:20:54.984Z,18.60
2022-08-22T11:23:37.004Z,18.60
2022-08-22T11:26:16.111Z,18.50
2022-08-22T11:29:24.522Z,18.50
2022-08-22T11:32:07.822Z,18.40
2022-08-22T11:34:51.108Z,18.40
2022-08-22T11:37:42.830Z,18.40
2022-08-22T11:40:27.681Z,18.40
2022-08-22T11:43:18.136Z,18.40
2022-08-22T11:45:51.331Z,18.30
2022-08-22T11:48:28.009Z,18.30
2022-08-22T11:51:13.133Z,18.30
2022-08-22T11:53:49.998Z,18.20
2022-08-22T11:56:29.932Z,18.20
2022-08-22T11:59:07.620Z,18.20
2022-08-22T12:01:44.605Z,18.20
2022-08-22T12:04:22.638Z,18.20
2022-08-22T12:07:10.172Z,18.10
2022-08-22T12:09:55.959Z,18.10
2022-08-22T12:12:42.147Z,18.00
2022-08-22T12:15:29.990Z,18.00
2022-08-22T12:18:40.390Z,18.00
2022-08-22T12:21:52.078Z,18.00
2022-08-22T12:25:02.937Z,17.90
2022-08-22T12:28:08.196Z,17.90
2022-08-22T12:30:48.592Z,17.90
2022-08-22T12:33:42.923Z,17.90
2022-08-22T12:36:41.139Z,17.90
2022-08-22T12:39:46.407Z,17.80
2022-08-22T12:42:40.213Z,17.80
2022-08-22T12:45:44.879Z,17.70
2022-08-22T12:48:26.544Z,17.70
2022-08-22T12:51:17.597Z,17.60
2022-08-22T12:54:21.200Z,17.60
2022-08-22T12:57:01.752Z,17.60
2022-08-22T12:59:35.700Z,17.60
2022-08-22T13:02:19.656Z,17.60
2022-08-22T13:04:57.231Z,17.60
2022-08-22T13:07:31.517Z,17.50
2022-08-22T13:10:05.876Z,17.50
2022-08-22T13:12:44.127Z,17.50
2022-08-22T13:15:29.966Z,17.50
2022-08-22T13:18:25.189Z,17.50
2022-08-22T13:20:56.304Z,17.50
2022-08-22T13:23:30.186Z,17.40
2022-08-22T13:26:10.700Z,17.50
2022-08-22T13:28:53.869Z,17.40
2022-08-22T13:31:39.035Z,17.50
2022-08-22T13:34:13.883Z,17.50
2022-08-22T13:36:53.324Z,17.40
2022-08-22T13:39:31.079Z,17.50
2022-08-22T13:42:04.403Z,17.50
2022-08-22T13:44:47.823Z,17.50
2022-08-22T13:47:23.691Z,17.40
2022-08-22T13:49:57.088Z,17.40
2022-08-22T13:52:37.925Z,17.40
2022-08-22T13:55:13.606Z,17.40
2022-08-22T13:57:51.758Z,17.50
2022-08-22T14:01:01.764Z,17.50
2022-08-22T14:03:42.163Z,17.50
2022-08-22T14:06:38.016Z,17.50
2022-08-22T14:09:31.408Z,17.60
2022-08-22T14:12:16.126Z,17.70
2022-08-22T14:14:48.516Z,17.70
2022-08-22T14:17:26.043Z,17.80
2022-08-22T14:20:03.686Z,17.90
2022-08-22T14:22:40.574Z,17.90
2022-08-22T14:25:21.422Z,18.00
2022-08-22T14:28:00.896Z,18.00
2022-08-22T14:30:34.830Z,18.10
2022-08-22T14:33:15.508Z,18.20
2022-08-22T14:35:52.946Z,18.30
2022-08-22T14:38:31.278Z,18.40
2022-08-22T14:41:06.585Z,18.60
2022-08-22T14:43:52.496Z,18.70
2022-08-22T14:46:27.579Z,18.80
2022-08-22T14:49:51.000Z,19.10
2022-08-22T14:52:40.601Z,19.50
2022-08-22T14:55:24.615Z,20.00
2022-08-22T14:58:03.290Z,20.40
2022-08-22T15:00:41.080Z,20.80
2022-08-22T15:03:18.833Z,21.20
2022-08-22T15:05:52.778Z,21.40
2022-08-22T15:08:31.732Z,21.50
2022-08-22T15:11:12.274Z,21.50
2022-08-22T15:13:52.446Z,21.70
2022-08-22T15:16:25.856Z,21.80
2022-08-22T15:18:57.471Z,21.90
2022-08-22T15:21:30.171Z,21.90
2022-08-22T15:24:08.764Z,22.10
2022-08-22T15:26:43.004Z,22.40
2022-08-22T15:29:20.734Z,23.40
2022-08-22T15:31:54.924Z,25.00
2022-08-22T15:34:33.323Z,26.20
2022-08-22T15:37:12.035Z,26.70
2022-08-22T15:42:47.847Z,28.10
2022-08-22T15:45:24.779Z,27.80
2022-08-22T15:47:56.855Z,27.70
2022-08-22T15:50:39.609Z,28.20
2022-08-22T15:53:22.671Z,28.00
2022-08-22T15:56:30.427Z,27.80
2022-08-22T15:59:23.468Z,28.50
2022-08-22T16:01:57.390Z,31.10
2022-08-22T16:04:43.297Z,32.80
2022-08-22T16:07:29.983Z,32.80
2022-08-22T16:10:03.471Z,32.70
2022-08-22T16:12:38.996Z,33.80
2022-08-22T16:15:54.142Z,34.40
2022-08-22T16:19:03.510Z,35.30
2022-08-22T16:25:12.216Z,36.10
2022-08-22T16:27:59.863Z,36.10
2022-08-22T16:30:42.032Z,36.20
2022-08-22T16:33:17.965Z,36.80
2022-08-22T16:36:27.926Z,35.90
2022-08-22T16:39:00.691Z,33.70
2022-08-22T16:41:37.688Z,33.40
2022-08-22T16:44:39.663Z,34.10
2022-08-22T16:47:15.788Z,35.10
2022-08-22T16:50:07.271Z,35.80
2022-08-22T16:53:00.226Z,36.10
2022-08-22T16:55:56.154Z,37.50
2022-08-22T16:58:59.226Z,37.40
2022-08-22T17:02:17.956Z,37.10
2022-08-22T17:05:05.247Z,36.50
2022-08-22T17:07:47.599Z,36.50
2022-08-22T17:10:43.156Z,37.40
2022-08-22T17:13:27.450Z,37.90
2022-08-22T17:16:16.442Z,37.90
2022-08-22T17:18:59.691Z,36.80
2022-08-22T17:21:35.158Z,37.70
2022-08-22T17:24:32.214Z,38.30
2022-08-22T17:27:12.235Z,38.30
2022-08-22T17:30:00.016Z,38.90
2022-08-22T17:32:39.880Z,38.60
2022-08-22T17:35:23.424Z,38.40
2022-08-22T17:38:11.394Z,38.10
2022-08-22T17:40:55.517Z,38.40
2022-08-22T17:43:48.730Z,38.70
2022-08-22T17:46:34.020Z,38.50
2022-08-22T17:49:15.307Z,37.70
2022-08-22T17:51:55.756Z,38.80
2022-08-22T17:54:35.614Z,38.20
2022-08-22T17:57:13.050Z,38.20
2022-08-22T17:59:51.547Z,38.10
2022-08-22T18:02:27.828Z,37.00
2022-08-22T18:05:07.721Z,36.90
2022-08-22T18:08:03.318Z,38.00
2022-08-22T18:10:46.800Z,38.50
2022-08-22T18:13:34.536Z,38.70
2022-08-22T18:16:10.001Z,38.40
2022-08-22T18:18:43.060Z,37.00
2022-08-22T18:21:23.694Z,36.10
2022-08-22T18:24:00.835Z,36.90
2022-08-22T18:26:39.073Z,37.70
2022-08-22T18:29:15.375Z,37.40
2022-08-22T18:31:55.117Z,37.30
2022-08-22T18:34:36.638Z,36.80
2022-08-22T18:37:21.800Z,36.60
2022-08-22T18:40:00.706Z,36.40
2022-08-22T18:42:38.791Z,36.40
2022-08-22T18:45:10.405Z,36.60
2022-08-22T18:47:41.413Z,36.90
2022-08-22T18:50:31.833Z,36.90
2022-08-22T18:53:02.806Z,36.90
2022-08-22T18:56:03.083Z,36.20
2022-08-22T18:59:05.448Z,36.80
2022-08-22T19:01:52.734Z,36.50
2022-08-22T19:04:43.966Z,36.90
2022-08-22T19:07:50.598Z,37.10
2022-08-22T19:10:43.628Z,36.90
2022-08-22T19:13:41.371Z,37.10
2022-08-22T19:16:27.540Z,37.20
2022-08-22T19:19:00.349Z,37.00
2022-08-22T19:21:50.162Z,35.90
2022-08-22T19:24:59.514Z,36.20
2022-08-22T19:27:32.320Z,36.00
2022-08-22T19:30:08.564Z,36.30
2022-08-22T19:33:01.155Z,36.20
2022-08-22T19:35:44.548Z,36.30
2022-08-22T19:38:35.861Z,35.90
2022-08-22T19:41:06.643Z,35.60
2022-08-22T19:43:41.195Z,35.90
2022-08-22T19:46:15.712Z,35.40
2022-08-22T19:48:50.903Z,34.80
2022-08-22T19:51:31.657Z,34.00
2022-08-22T19:54:20.240Z,33.90
2022-08-22T19:57:05.872Z,33.40
2022-08-22T19:59:51.081Z,33.70
2022-08-22T20:02:35.948Z,33.70
2022-08-22T20:05:24.673Z,33.70
2022-08-22T20:08:16.288Z,33.90
2022-08-22T20:11:00.095Z,33.60
2022-08-22T20:13:35.311Z,33.70
2022-08-22T20:16:19.814Z,33.50
2022-08-22T20:19:19.864Z,33.20
2022-08-22T20:21:59.006Z,32.50
2022-08-22T20:24:39.946Z,32.30
2022-08-22T20:27:16.966Z,32.30
2022-08-22T20:29:53.880Z,32.20
2022-08-22T20:32:26.836Z,32.30
2022-08-22T20:35:02.978Z,32.10
2022-08-22T20:38:04.768Z,32.30
2022-08-22T20:40:55.122Z,32.40
2022-08-22T20:43:35.169Z,32.00
2022-08-22T20:46:43.675Z,32.10
2022-08-22T20:49:20.099Z,32.20
2022-08-22T20:51:59.303Z,32.30
2022-08-22T20:54:31.783Z,32.40
2022-08-22T20:57:04.754Z,32.40
2022-08-22T20:59:38.211Z,32.30
2022-08-22T21:02:17.387Z,32.40
2022-08-22T21:04:55.703Z,32.40
2022-08-22T21:07:33.767Z,32.00
2022-08-22T21:10:24.021Z,31.90
2022-08-22T21:13:11.954Z,32.00
2022-08-22T21:15:46.498Z,31.80
2022-08-22T21:18:27.773Z,31.80
2022-08-22T21:21:08.110Z,32.00
2022-08-22T21:23:53.484Z,32.00
2022-08-22T21:26:28.956Z,32.00
2022-08-22T21:29:02.921Z,32.30
2022-08-22T21:31:36.643Z,32.60
2022-08-22T21:34:07.544Z,32.50
2022-08-22T21:36:41.347Z,32.50
2022-08-22T21:39:23.006Z,32.30
2022-08-22T21:41:55.816Z,32.30
2022-08-22T21:44:35.528Z,32.30
2022-08-22T21:47:30.957Z,32.30
2022-08-22T21:50:08.687Z,32.40
2022-08-22T21:52:41.120Z,32.50
2022-08-22T21:55:27.052Z,32.60
2022-08-22T21:58:13.614Z,32.50
2022-08-22T22:01:05.799Z,32.20
2022-08-22T22:03:41.544Z,32.10
2022-08-22T22:06:12.277Z,32.00
2022-08-22T22:08:43.078Z,32.00
2022-08-22T22:11:17.607Z,32.00
2022-08-22T22:13:49.799Z,32.10
2022-08-22T22:16:27.352Z,32.20
2022-08-22T22:18:58.249Z,32.30
2022-08-22T22:21:29.265Z,32.00
2022-08-22T22:24:00.026Z,31.70
2022-08-22T22:26:33.536Z,31.80
2022-08-22T22:29:05.413Z,31.80
2022-08-22T22:31:39.499Z,31.80
2022-08-22T22:34:10.255Z,31.70
2022-08-22T22:36:43.339Z,31.80
2022-08-22T22:39:14.624Z,31.90
2022-08-22T22:41:46.957Z,32.00
2022-08-22T22:44:17.771Z,32.00
2022-08-22T22:46:52.374Z,32.10
2022-08-22T22:49:23.405Z,32.20
2022-08-22T22:51:54.201Z,32.10
2022-08-22T22:54:27.162Z,31.80
2022-08-22T22:56:59.899Z,31.70
2022-08-22T22:59:32.611Z,31.80
2022-08-22T23:02:06.265Z,31.90
2022-08-22T23:04:39.968Z,32.10
2022-08-22T23:07:11.754Z,32.00
2022-08-22T23:09:44.919Z,31.90
2022-08-22T23:12:18.223Z,32.00
2022-08-22T23:14:53.258Z,31.90
2022-08-22T23:17:24.142Z,31.80
2022-08-22T23:19:55.203Z,31.80
2022-08-22T23:22:25.944Z,31.70
2022-08-22T23:24:56.770Z,31.80
2022-08-22T23:27:29.207Z,31.80
2022-08-22T23:29:59.936Z,31.80
2022-08-22T23:32:30.825Z,31.70
2022-08-22T23:35:01.619Z,31.50
2022-08-22T23:37:32.422Z,31.50
2022-08-22T23:40:03.232Z,31.50
2022-08-22T23:42:35.619Z,31.50
2022-08-22T23:45:08.558Z,31.70
2022-08-22T23:47:39.240Z,31.50
2022-08-22T23:50:10.281Z,31.50
2022-08-22T23:52:41.052Z,31.50
2022-08-22T23:55:12.404Z,31.80
2022-08-22T23:57:44.762Z,31.80
